Aeroporto :
LOGIN :

Iscrizione | Disclaimer

   EN    FR    IT 

 










Sommario :    VFR   VFR Marginale   IFR   IFR Intensivo   IFR Molto Intensivo
Visibilità : 
Base nubi : 
>= 8 km
>= 3000ft
5 / 8 km
1000 / 3000 ft
1500m / 5 km
500 / 1000 ft
800 / 1500m
200 / 500 ft
< 800m
< 200 ft
Simboli :   Temporali  Nebbia  Neve Forte  Precipitazioni Forti  Vento > 20 kt
SIGMETs :   Varie  Temporali  Ghiacco  Turbolenza  Onda orograficha  Ceneri Vulcaniche







- Altitudine del aeroporto : 7 ft
- Codice IATA : POW


LJPZ - Portoroz

ULTIMO METAR :
  • 240930Z 32007KT 280V350 9999 FEW030 20/14 Q1013

METARs OBSOLETI :
  • 240900Z 31005KT 270V340 9999 FEW030 20/15 Q1013
  • 240830Z 32005KT 290V350 9999 FEW030 SCT100 20/15 Q1014
  • 240800Z 32006KT 9999 FEW030 SCT100 19/15 Q1014
  • 240730Z 33006KT CAVOK 19/15 Q1014
  • 240700Z 32003KT 290V350 CAVOK 19/15 Q1013

TAF TAF LJPZ
Valido dal 24 a 09 ore il 24 a 18 ore UTC


240800Z 2409/2418 32006KT CAVOK
BECMG 2411/2413 26006KT FEW050
Nessun NOTAM noto per questo aeroporto.



MetMap, La meteo Aeronautica in un colpo d'occhio ! - Copyright ORBIFLY Dicembre 2007 - Disclaimer

ORBIFLY MET'MAP TEAM :

Programmazione e sviluppo : Alexandra Zaïnal
Concezione e sviluppo : Baudouin d'Aumeries
Co-Programmazione e sviluppo : Marc-Olivier Méhu
Supporto tecnico e logistico : Manuel Goepfert
Aiuto per la traduzione : Arnaldo La Scala

Contatto : metmap@orbifly.com




FONTI E CREDITI :

   NOAA